Strang, Oklahoma
Current Conditions -  °F | °C
As of 7:35 AM on Saturday 25 Oct 2014 (Local Time) from KGCM Reporting Station
Haze Haze  
Wind Chill: 55°   Ceiling: Unl
Heat Index: 55°   Visibility: 5mi
Dew Point: 55°   Wind: 5mph
Humidity: 100%   Direction: 150°SSE
Pressure: 30.1"   Gusts: NA
Location:  36.41°N, 95.13°W
Report Text: KGCM 251235Z AUTO 15004KT 5SM BR CLR 13/13 A3010 RMK AO2
Loading
Personal Weather Stations






























Interactive Weather Map
Tropical Storm Tracking
New forecast layout! Learn more

10-Day Weather Forecast

Advertisements
Track Severe Weather on mobile